CheckWX is a tool to help pilots better visualize weather data.  It is not intended as a substitute for an official pre-flight weather briefing.

01:42:59 UTC

KNHK METAR
Airport
Patuxent River, Maryland, USA
Current

51 mins ago

KNHK 280052Z 14008KT 10SM FEW025 FEW060 BKN100 BKN260 21/20 A3014 RMK AO2 SLP208 T02110200
Observed
May-28 @ 00:52 UTC
Wind
  • 140° at 8 KTS
Visibility
Flight Rules
VFR
Cloud Levels
  • Few at 2,500' AGL
  • Few at 6,000' AGL
  • Broken at 10,000' AGL
  • Broken at 26,000' AGL
Temperature
21°C / 70°F
Dewpoint
20°C / 68°F
Humidity
94%
Altimeter
30.14" Hg
Pressure
1020.62 hPa
Previous

2 hours ago

KNHK 272352Z 15010KT 10SM FEW030 FEW080 SCT150 BKN260 22/20 A3015 RMK AO2 SLP208 T02220200 10250 20222 53000
Observed
May-27 @ 23:52 UTC
Wind
  • 150° at 10 KTS
Visibility
Flight Rules
VFR
Cloud Levels
  • Few at 3,000' AGL
  • Few at 8,000' AGL
  • Scattered at 15,000' AGL
  • Broken at 26,000' AGL
Temperature
22°C / 72°F
Dewpoint
20°C / 68°F
Humidity
88%
Altimeter
30.15" Hg
Pressure
1021.02 hPa
Previous

3 hours ago

KNHK 272252Z 15008KT 10SM FEW030 FEW080 SCT150 BKN260 23/19 A3014 RMK AO2 SLP205 T02330194
Observed
May-27 @ 22:52 UTC
Wind
  • 150° at 8 KTS
Visibility
Flight Rules
VFR
Cloud Levels
  • Few at 3,000' AGL
  • Few at 8,000' AGL
  • Scattered at 15,000' AGL
  • Broken at 26,000' AGL
Temperature
23°C / 73°F
Dewpoint
19°C / 66°F
Humidity
78%
Altimeter
30.14" Hg
Pressure
1020.62 hPa